createdAt,value
2018-09-24T00:01:22.752Z,7.55
2018-09-24T00:03:52.666Z,7.55
2018-09-24T00:06:22.281Z,7.35
2018-09-24T00:08:51.913Z,7.25
2018-09-24T00:11:21.609Z,7.17
2018-09-24T00:13:52.289Z,7.26
2018-09-24T00:16:22.561Z,7.19
2018-09-24T00:18:52.576Z,7.07
2018-09-24T00:21:25.870Z,7.13
2018-09-24T00:23:55.489Z,7.17
2018-09-24T00:26:25.813Z,7.21
2018-09-24T00:28:55.537Z,7.26
2018-09-24T00:31:25.177Z,7.31
2018-09-24T00:33:55.299Z,7.23
2018-09-24T00:36:27.977Z,7.14
2018-09-24T00:38:57.643Z,7.08
2018-09-24T00:41:27.723Z,7.12
2018-09-24T00:43:57.353Z,7.18
2018-09-24T00:46:26.991Z,7.24
2018-09-24T00:48:57.042Z,7.29
2018-09-24T00:51:26.651Z,7.27
2018-09-24T00:53:56.289Z,7.29
2018-09-24T00:56:25.925Z,7.33
2018-09-24T00:58:55.520Z,7.39
2018-09-24T01:01:25.320Z,7.39
2018-09-24T01:03:55.285Z,7.27
2018-09-24T01:06:24.929Z,7.22
2018-09-24T01:08:54.569Z,7.29
2018-09-24T01:11:24.238Z,7.28
2018-09-24T01:13:54.205Z,7.31
2018-09-24T01:16:23.861Z,7.29
2018-09-24T01:18:53.454Z,7.24
2018-09-24T01:21:23.120Z,7.36
2018-09-24T01:23:52.774Z,7.37
2018-09-24T01:26:22.424Z,7.34
2018-09-24T01:28:52.418Z,7.31
2018-09-24T01:31:22.062Z,7.23
2018-09-24T01:33:51.701Z,7.20
2018-09-24T01:36:21.314Z,7.21
2018-09-24T01:38:51.013Z,7.14
2018-09-24T01:41:21.052Z,7.16
2018-09-24T01:43:51.084Z,7.15
2018-09-24T01:46:20.718Z,7.13
2018-09-24T01:48:50.380Z,7.14
2018-09-24T01:51:20.401Z,7.19
2018-09-24T01:53:50.029Z,7.11
2018-09-24T01:56:19.653Z,7.16
2018-09-24T01:58:49.285Z,7.25
2018-09-24T02:01:19.420Z,7.27
2018-09-24T02:03:49.090Z,7.35
2018-09-24T02:06:18.712Z,7.32
2018-09-24T02:08:48.873Z,7.29
2018-09-24T02:11:18.506Z,7.37
2018-09-24T02:13:50.470Z,7.34
2018-09-24T02:16:21.253Z,7.32
2018-09-24T02:18:51.387Z,7.26
2018-09-24T02:21:21.022Z,7.31
2018-09-24T02:23:51.002Z,7.37
2018-09-24T02:26:20.685Z,7.41
2018-09-24T02:28:50.377Z,7.34
2018-09-24T02:31:20.444Z,7.26
2018-09-24T02:33:50.094Z,7.20
2018-09-24T02:36:19.732Z,7.21
2018-09-24T02:38:49.381Z,7.21
2018-09-24T02:41:19.018Z,7.19
2018-09-24T02:43:48.676Z,7.11
2018-09-24T02:46:18.601Z,7.18
2018-09-24T02:48:48.277Z,7.21
2018-09-24T02:51:17.942Z,7.17
2018-09-24T02:53:47.599Z,7.18
2018-09-24T02:56:18.943Z,7.17
2018-09-24T02:58:48.609Z,7.22
2018-09-24T03:01:19.098Z,7.23
2018-09-24T03:03:48.810Z,7.30
2018-09-24T03:06:22.559Z,7.27
2018-09-24T03:08:52.241Z,7.27
2018-09-24T03:11:22.557Z,7.26
2018-09-24T03:13:52.424Z,7.27
2018-09-24T03:16:22.131Z,7.33
2018-09-24T03:18:58.871Z,7.26
2018-09-24T03:21:32.177Z,7.24
2018-09-24T03:24:01.990Z,7.17
2018-09-24T03:26:31.625Z,7.11
2018-09-24T03:29:01.596Z,7.20
2018-09-24T03:31:36.113Z,7.16
2018-09-24T03:34:06.568Z,7.08
2018-09-24T03:36:36.391Z,7.12
2018-09-24T03:39:07.976Z,7.18
2018-09-24T03:41:38.533Z,7.23
2018-09-24T03:44:09.148Z,7.26
2018-09-24T03:46:39.702Z,7.24
2018-09-24T03:49:09.632Z,7.21
2018-09-24T03:51:39.350Z,7.14
2018-09-24T03:54:11.261Z,7.11
2018-09-24T03:56:44.882Z,7.06
2018-09-24T03:59:14.537Z,7.02
2018-09-24T04:01:45.253Z,6.99
2018-09-24T04:04:20.777Z,7.01
2018-09-24T04:06:55.614Z,6.97
2018-09-24T04:09:30.190Z,6.97
2018-09-24T04:12:05.813Z,7.02
2018-09-24T04:14:40.717Z,6.99
2018-09-24T04:17:15.185Z,7.04
2018-09-24T04:19:50.178Z,7.04
2018-09-24T04:22:24.744Z,7.01
2018-09-24T04:24:59.753Z,6.97
2018-09-24T04:27:35.274Z,6.94
2018-09-24T04:30:10.223Z,6.97
2018-09-24T04:32:44.665Z,6.97
2018-09-24T04:35:19.148Z,7.01
2018-09-24T04:37:55.697Z,6.99
2018-09-24T04:40:30.178Z,7.05
2018-09-24T04:43:05.389Z,7.12
2018-09-24T04:45:39.902Z,7.05
2018-09-24T04:48:16.000Z,7.02
2018-09-24T04:50:50.531Z,7.00
2018-09-24T04:53:24.978Z,7.00
2018-09-24T04:55:59.936Z,7.01
2018-09-24T04:58:36.143Z,7.03
2018-09-24T05:01:10.736Z,7.04
2018-09-24T05:03:45.350Z,7.07
2018-09-24T05:06:20.526Z,7.07
2018-09-24T05:08:55.158Z,7.02
2018-09-24T05:11:30.085Z,7.03
2018-09-24T05:14:05.210Z,7.01
2018-09-24T05:16:39.840Z,6.97
2018-09-24T05:19:14.857Z,6.99
2018-09-24T05:21:49.454Z,7.00
2018-09-24T05:24:24.065Z,6.93
2018-09-24T05:26:58.631Z,6.98
2018-09-24T05:29:33.770Z,6.98
2018-09-24T05:32:08.344Z,6.98
2018-09-24T05:34:43.994Z,6.93
2018-09-24T05:37:20.534Z,6.94
2018-09-24T05:39:55.455Z,6.93
2018-09-24T05:42:30.535Z,6.92
2018-09-24T05:45:05.500Z,6.96
2018-09-24T05:47:40.081Z,6.94
2018-09-24T05:50:18.516Z,6.95
2018-09-24T05:52:53.714Z,6.94
2018-09-24T05:55:28.375Z,6.95
2018-09-24T05:58:02.825Z,7.01
2018-09-24T06:00:37.557Z,7.02
2018-09-24T06:03:11.996Z,7.10
2018-09-24T06:05:46.530Z,7.11
2018-09-24T06:08:21.982Z,7.08
2018-09-24T06:10:57.302Z,7.10
2018-09-24T06:13:32.677Z,7.16
2018-09-24T06:16:07.126Z,7.18
2018-09-24T06:18:42.370Z,7.18
2018-09-24T06:21:17.286Z,7.11
2018-09-24T06:23:51.819Z,7.15
2018-09-24T06:26:27.178Z,7.22
2018-09-24T06:29:02.145Z,7.23
2018-09-24T06:31:37.393Z,7.26
2018-09-24T06:34:12.649Z,7.32
2018-09-24T06:36:48.766Z,7.34
2018-09-24T06:39:24.584Z,7.32
2018-09-24T06:42:00.149Z,7.33
2018-09-24T06:44:35.376Z,7.32
2018-09-24T06:47:11.630Z,7.28
2018-09-24T06:49:47.253Z,7.28
2018-09-24T06:52:23.250Z,7.27
2018-09-24T06:54:58.268Z,7.27
2018-09-24T06:57:32.776Z,7.35
2018-09-24T07:00:07.668Z,7.34
2018-09-24T07:02:43.181Z,7.40
2018-09-24T07:05:18.088Z,7.42
2018-09-24T07:07:52.708Z,7.40
2018-09-24T07:10:27.200Z,7.43
2018-09-24T07:13:02.019Z,7.44
2018-09-24T07:15:36.588Z,7.42
2018-09-24T07:18:14.048Z,7.44
2018-09-24T07:20:49.210Z,7.49
2018-09-24T07:23:24.682Z,7.50
2018-09-24T07:26:00.217Z,7.51
2018-09-24T07:31:16.302Z,7.59
2018-09-24T07:33:51.429Z,7.64
2018-09-24T07:36:26.470Z,7.67
2018-09-24T07:39:03.029Z,7.67
2018-09-24T07:41:38.547Z,7.71
2018-09-24T07:44:13.230Z,7.70
2018-09-24T07:46:48.873Z,7.71
2018-09-24T07:49:30.949Z,7.71
2018-09-24T07:52:07.062Z,7.68
2018-09-24T07:54:41.969Z,7.57
2018-09-24T07:57:17.353Z,7.54
2018-09-24T07:59:51.984Z,7.49
2018-09-24T08:02:35.821Z,7.51
2018-09-24T08:05:19.462Z,7.54
2018-09-24T08:08:04.999Z,7.53
2018-09-24T08:10:47.285Z,7.54
2018-09-24T08:13:21.933Z,7.61
2018-09-24T08:15:59.202Z,7.72
2018-09-24T08:18:34.234Z,7.88
2018-09-24T08:21:09.947Z,8.07
2018-09-24T08:23:44.557Z,8.20
2018-09-24T08:26:19.566Z,8.34
2018-09-24T08:28:54.209Z,8.43
2018-09-24T08:31:29.630Z,8.36
2018-09-24T08:34:04.641Z,8.29
2018-09-24T08:36:39.290Z,8.20
2018-09-24T08:39:15.206Z,8.10
2018-09-24T08:41:49.909Z,8.10
2018-09-24T08:44:26.137Z,8.15
2018-09-24T08:47:03.394Z,8.30
2018-09-24T08:49:38.968Z,8.25
2018-09-24T08:52:14.102Z,8.25
2018-09-24T08:54:49.655Z,8.30
2018-09-24T08:57:24.862Z,8.37
2018-09-24T09:00:01.917Z,8.53
2018-09-24T09:02:37.604Z,8.52
2018-09-24T09:05:12.209Z,8.65
2018-09-24T09:07:47.390Z,8.68
2018-09-24T09:10:21.862Z,8.72
2018-09-24T09:12:56.924Z,8.68
2018-09-24T09:15:42.678Z,8.74
2018-09-24T09:18:18.762Z,8.70
2018-09-24T09:20:53.336Z,8.72
2018-09-24T09:23:28.429Z,8.85
2018-09-24T09:26:04.622Z,8.91
2018-09-24T09:28:40.858Z,9.12
2018-09-24T09:31:15.422Z,9.34
2018-09-24T09:33:50.342Z,9.38
2018-09-24T09:36:26.239Z,9.33
2018-09-24T09:39:00.850Z,9.12
2018-09-24T09:41:35.488Z,8.68
2018-09-24T09:44:10.711Z,8.55
2018-09-24T09:46:45.743Z,8.38
2018-09-24T09:49:21.177Z,8.37
2018-09-24T09:51:57.259Z,8.29
2018-09-24T09:54:31.931Z,8.24
2018-09-24T09:57:06.928Z,8.37
2018-09-24T09:59:41.425Z,8.53
2018-09-24T10:02:15.901Z,8.71
2018-09-24T10:04:50.609Z,8.90
2018-09-24T10:07:25.540Z,9.08
2018-09-24T10:10:01.320Z,9.28
2018-09-24T10:12:36.730Z,9.41
2018-09-24T10:15:11.445Z,9.52
2018-09-24T10:17:47.822Z,9.63
2018-09-24T10:20:22.349Z,9.73
2018-09-24T10:22:57.556Z,9.94
2018-09-24T10:25:33.400Z,9.85
2018-09-24T10:28:08.114Z,9.61
2018-09-24T10:30:43.184Z,9.65
2018-09-24T10:33:18.279Z,9.74
2018-09-24T10:35:54.879Z,9.87
2018-09-24T10:38:30.416Z,10.03
2018-09-24T10:41:05.354Z,9.87
2018-09-24T10:43:40.816Z,9.92
2018-09-24T10:46:15.835Z,10.10
2018-09-24T10:48:50.702Z,10.26
2018-09-24T10:51:28.376Z,10.12
2018-09-24T10:54:03.486Z,9.61
2018-09-24T10:56:39.437Z,9.47
2018-09-24T10:59:15.991Z,9.52
2018-09-24T11:01:52.245Z,9.49
2018-09-24T11:04:26.879Z,9.57
2018-09-24T11:07:01.865Z,9.78
2018-09-24T11:09:37.478Z,9.86
2018-09-24T11:12:12.525Z,10.03
2018-09-24T11:14:48.718Z,10.18
2018-09-24T11:17:24.209Z,10.48
2018-09-24T11:19:58.847Z,10.67
2018-09-24T11:22:35.090Z,10.86
2018-09-24T11:25:10.273Z,10.83
2018-09-24T11:27:44.959Z,10.70
2018-09-24T11:30:20.681Z,10.65
2018-09-24T11:32:55.446Z,10.58
2018-09-24T11:35:29.945Z,10.38
2018-09-24T11:38:05.388Z,10.32
2018-09-24T11:40:40.465Z,10.43
2018-09-24T11:43:14.889Z,10.65
2018-09-24T11:45:49.699Z,10.82
2018-09-24T11:48:24.398Z,11.10
2018-09-24T11:50:59.502Z,11.09
2018-09-24T11:53:34.197Z,10.89
2018-09-24T11:56:08.750Z,10.65
2018-09-24T11:58:43.726Z,10.68
2018-09-24T12:01:19.406Z,10.80
2018-09-24T12:03:55.618Z,10.91
2018-09-24T12:06:30.842Z,10.98
2018-09-24T12:09:07.427Z,11.01
2018-09-24T12:11:42.236Z,10.86
2018-09-24T12:14:17.733Z,10.90
2018-09-24T12:16:52.421Z,11.00
2018-09-24T12:19:27.399Z,11.13
2018-09-24T12:22:02.436Z,11.15
2018-09-24T12:24:38.763Z,11.10
2018-09-24T12:27:13.430Z,11.02
2018-09-24T12:29:48.617Z,11.02
2018-09-24T12:32:24.364Z,10.94
2018-09-24T12:35:00.385Z,10.96
2018-09-24T12:37:35.805Z,11.06
2018-09-24T12:40:13.216Z,11.12
2018-09-24T12:42:49.208Z,11.28
2018-09-24T12:45:24.628Z,11.31
2018-09-24T12:47:59.312Z,11.34
2018-09-24T12:50:36.731Z,11.35
2018-09-24T12:53:13.401Z,11.34
2018-09-24T12:55:49.502Z,11.27
2018-09-24T12:58:25.191Z,11.16
2018-09-24T13:01:09.612Z,11.01
2018-09-24T13:03:54.393Z,10.87
2018-09-24T13:06:29.345Z,10.91
2018-09-24T13:09:05.568Z,10.71
2018-09-24T13:11:44.005Z,10.52
2018-09-24T13:14:20.868Z,10.53
2018-09-24T13:16:56.601Z,10.50
2018-09-24T13:19:35.277Z,10.28
2018-09-24T13:22:12.215Z,9.80
2018-09-24T13:24:50.043Z,9.76
2018-09-24T13:27:26.810Z,9.77
2018-09-24T13:30:02.324Z,9.72
2018-09-24T13:32:38.902Z,9.73
2018-09-24T13:35:15.638Z,9.74
2018-09-24T13:37:52.989Z,9.91
2018-09-24T13:40:28.511Z,10.08
2018-09-24T13:43:03.122Z,10.13
2018-09-24T13:45:37.695Z,10.03
2018-09-24T13:48:12.846Z,10.02
2018-09-24T13:50:51.454Z,9.93
2018-09-24T13:53:26.665Z,9.87
2018-09-24T13:56:02.246Z,9.98
2018-09-24T13:58:37.824Z,9.97
2018-09-24T14:01:14.365Z,9.96
2018-09-24T14:03:49.989Z,9.99
2018-09-24T14:06:24.809Z,9.96
2018-09-24T14:09:03.133Z,9.99
2018-09-24T14:11:38.262Z,10.02
2018-09-24T14:14:13.702Z,9.91
2018-09-24T14:16:52.566Z,9.96
2018-09-24T14:19:27.384Z,10.15
2018-09-24T14:22:02.550Z,10.37
2018-09-24T14:24:37.268Z,10.53
2018-09-24T14:27:12.210Z,10.47
2018-09-24T14:29:46.639Z,10.34
2018-09-24T14:32:21.961Z,10.23
2018-09-24T14:34:57.458Z,10.18
2018-09-24T14:37:32.992Z,10.11
2018-09-24T14:40:11.183Z,10.10
2018-09-24T14:42:47.450Z,10.01
2018-09-24T14:45:22.288Z,9.96
2018-09-24T14:47:58.661Z,9.93
2018-09-24T14:50:35.774Z,9.65
2018-09-24T14:53:12.115Z,8.97
2018-09-24T14:55:47.837Z,8.68
2018-09-24T14:58:23.489Z,8.56
2018-09-24T15:00:58.375Z,8.45
2018-09-24T15:03:37.332Z,8.33
2018-09-24T15:06:13.152Z,8.13
2018-09-24T15:08:48.953Z,8.09
2018-09-24T15:11:24.259Z,8.13
2018-09-24T15:13:58.985Z,8.18
2018-09-24T15:16:34.212Z,8.26
2018-09-24T15:19:10.249Z,8.30
2018-09-24T15:21:46.618Z,8.31
2018-09-24T15:24:24.566Z,8.06
2018-09-24T15:27:01.693Z,7.89
2018-09-24T15:29:38.856Z,7.82
2018-09-24T15:32:15.604Z,7.86
2018-09-24T15:34:50.557Z,7.88
2018-09-24T15:37:25.321Z,7.97
2018-09-24T15:40:00.740Z,7.98
2018-09-24T15:42:38.894Z,8.01
2018-09-24T15:45:14.258Z,8.14
2018-09-24T15:47:51.113Z,8.25
2018-09-24T15:50:26.499Z,8.29
2018-09-24T15:53:02.157Z,8.37
2018-09-24T15:55:36.837Z,8.38
2018-09-24T15:58:12.966Z,8.38
2018-09-24T16:00:48.634Z,8.35
2018-09-24T16:03:24.382Z,8.32
2018-09-24T16:05:59.995Z,8.29
2018-09-24T16:08:36.842Z,8.28
2018-09-24T16:11:15.426Z,8.24
2018-09-24T16:13:53.407Z,8.25
2018-09-24T16:16:29.676Z,8.26
2018-09-24T16:19:04.655Z,8.25
2018-09-24T16:21:41.353Z,8.28
2018-09-24T16:24:18.090Z,8.33
2018-09-24T16:26:59.237Z,8.31
2018-09-24T16:29:36.063Z,8.19
2018-09-24T16:32:13.429Z,8.16
2018-09-24T16:34:49.225Z,8.16
2018-09-24T16:37:24.553Z,8.16
2018-09-24T16:40:01.298Z,8.07
2018-09-24T16:42:40.195Z,8.04
2018-09-24T16:45:20.483Z,7.83
2018-09-24T16:48:02.462Z,7.77
2018-09-24T16:50:48.717Z,7.74
2018-09-24T16:53:38.672Z,7.61
2018-09-24T16:56:16.688Z,7.50
2018-09-24T16:58:58.362Z,7.52
2018-09-24T17:01:33.493Z,7.50
2018-09-24T17:04:10.097Z,7.47
2018-09-24T17:06:48.418Z,7.41
2018-09-24T17:10:26.476Z,7.42
2018-09-24T17:13:00.942Z,7.36
2018-09-24T17:15:36.741Z,7.45
2018-09-24T17:18:13.508Z,7.47
2018-09-24T17:20:48.582Z,7.41
2018-09-24T17:23:26.844Z,7.46
2018-09-24T17:26:03.961Z,7.44
2018-09-24T17:28:40.801Z,7.42
2018-09-24T17:31:17.193Z,7.43
2018-09-24T17:33:56.566Z,7.42
2018-09-24T17:36:32.683Z,7.42
2018-09-24T17:39:07.432Z,7.37
2018-09-24T17:41:44.706Z,7.42
2018-09-24T17:44:19.381Z,7.43
2018-09-24T17:46:55.626Z,7.44
2018-09-24T17:49:31.165Z,7.42
2018-09-24T17:52:07.696Z,7.37
2018-09-24T17:54:42.516Z,7.35
2018-09-24T17:57:19.625Z,7.37
2018-09-24T17:59:56.849Z,7.35
2018-09-24T18:02:35.305Z,7.39
2018-09-24T18:05:10.440Z,7.39
2018-09-24T18:07:46.398Z,7.39
2018-09-24T18:10:21.431Z,7.34
2018-09-24T18:12:58.949Z,7.38
2018-09-24T18:15:34.676Z,7.40
2018-09-24T18:18:09.698Z,7.39
2018-09-24T18:20:45.133Z,7.42
2018-09-24T18:23:20.496Z,7.39
2018-09-24T18:25:55.512Z,7.48
2018-09-24T18:28:32.450Z,7.40
2018-09-24T18:31:08.481Z,7.41
2018-09-24T18:33:44.697Z,7.30
2018-09-24T18:36:19.607Z,7.19
2018-09-24T18:38:55.518Z,7.15
2018-09-24T18:41:30.849Z,7.19
2018-09-24T18:44:08.157Z,7.22
2018-09-24T18:46:44.457Z,7.23
2018-09-24T18:49:20.438Z,7.17
2018-09-24T18:51:55.412Z,7.21
2018-09-24T18:54:31.478Z,7.17
2018-09-24T18:57:09.205Z,7.12
2018-09-24T18:59:45.298Z,7.08
2018-09-24T19:02:22.024Z,7.11
2018-09-24T19:04:57.443Z,7.12
2018-09-24T19:07:32.263Z,7.12
2018-09-24T19:10:07.944Z,7.09
2018-09-24T19:12:45.752Z,7.10
2018-09-24T19:15:22.425Z,7.09
2018-09-24T19:17:58.291Z,7.08
2018-09-24T19:20:33.702Z,7.11
2018-09-24T19:23:09.574Z,7.08
2018-09-24T19:25:47.388Z,7.04
2018-09-24T19:28:23.738Z,7.06
2018-09-24T19:31:03.507Z,7.11
2018-09-24T19:33:41.000Z,7.11
2018-09-24T19:36:17.419Z,7.06
2018-09-24T19:38:54.681Z,7.10
2018-09-24T19:41:30.120Z,7.05
2018-09-24T19:44:06.639Z,6.97
2018-09-24T19:46:47.049Z,6.99
2018-09-24T19:49:24.876Z,6.95
2018-09-24T19:52:00.372Z,6.94
2018-09-24T19:54:36.781Z,6.98
2018-09-24T19:57:15.541Z,6.97
2018-09-24T19:59:50.802Z,6.97
2018-09-24T20:02:28.865Z,6.86
2018-09-24T20:05:07.296Z,6.81
2018-09-24T20:07:41.712Z,6.78
2018-09-24T20:10:20.269Z,6.77
2018-09-24T20:12:55.973Z,6.78
2018-09-24T20:15:30.677Z,6.77
2018-09-24T20:18:05.818Z,6.73
2018-09-24T20:20:46.437Z,6.75
2018-09-24T20:23:26.062Z,6.78
2018-09-24T20:26:01.673Z,6.80
2018-09-24T20:28:36.767Z,6.78
2018-09-24T20:31:14.293Z,6.77
2018-09-24T20:33:53.117Z,6.66
2018-09-24T20:36:28.681Z,6.66
2018-09-24T20:39:03.438Z,6.63
2018-09-24T20:41:39.102Z,6.58
2018-09-24T20:44:18.364Z,6.58
2018-09-24T20:46:54.645Z,6.55
2018-09-24T20:49:29.862Z,6.58
2018-09-24T20:52:05.458Z,6.51
2018-09-24T20:54:41.219Z,6.39
2018-09-24T20:57:16.414Z,6.42
2018-09-24T20:59:52.304Z,6.40
2018-09-24T21:02:28.896Z,6.30
2018-09-24T21:05:04.765Z,6.26
2018-09-24T21:07:39.318Z,6.26
2018-09-24T21:10:14.405Z,6.29
2018-09-24T21:12:53.721Z,6.26
2018-09-24T21:15:31.026Z,6.26
2018-09-24T21:18:05.536Z,6.22
2018-09-24T21:20:41.813Z,6.30
2018-09-24T21:23:17.424Z,6.28
2018-09-24T21:25:52.489Z,6.27
2018-09-24T21:28:27.875Z,6.27
2018-09-24T21:31:03.408Z,6.28
2018-09-24T21:33:39.420Z,6.18
2018-09-24T21:36:15.432Z,6.14
2018-09-24T21:38:49.938Z,6.12
2018-09-24T21:41:26.506Z,6.10
2018-09-24T21:44:01.066Z,6.03
2018-09-24T21:46:39.991Z,5.96
2018-09-24T21:49:14.633Z,5.89
2018-09-24T21:51:53.445Z,5.84
2018-09-24T21:54:29.304Z,5.79
2018-09-24T21:57:03.735Z,5.72
2018-09-24T21:59:38.620Z,5.67
2018-09-24T22:02:14.116Z,5.64
2018-09-24T22:04:49.061Z,5.56
2018-09-24T22:07:23.773Z,5.58
2018-09-24T22:09:58.304Z,5.56
2018-09-24T22:12:34.612Z,5.57
2018-09-24T22:15:10.513Z,5.58
2018-09-24T22:17:45.077Z,5.59
2018-09-24T22:20:20.277Z,5.60
2018-09-24T22:22:56.313Z,5.62
2018-09-24T22:25:31.240Z,5.58
2018-09-24T22:28:05.794Z,5.56
2018-09-24T22:30:40.421Z,5.53
2018-09-24T22:33:16.454Z,5.49
2018-09-24T22:35:52.403Z,5.45
2018-09-24T22:38:28.201Z,5.39
2018-09-24T22:41:02.757Z,5.29
2018-09-24T22:43:39.267Z,5.23
2018-09-24T22:46:15.174Z,5.23
2018-09-24T22:48:49.685Z,5.18
2018-09-24T22:51:24.302Z,5.19
2018-09-24T22:53:58.962Z,5.17
2018-09-24T22:56:33.875Z,5.10
2018-09-24T22:59:08.405Z,5.11
2018-09-24T23:01:42.976Z,5.08
2018-09-24T23:04:19.093Z,5.07
2018-09-24T23:06:53.629Z,5.01
2018-09-24T23:09:29.569Z,4.99
2018-09-24T23:12:04.412Z,5.06
2018-09-24T23:14:39.250Z,5.11
2018-09-24T23:17:15.135Z,5.16
2018-09-24T23:19:49.959Z,5.23
2018-09-24T23:22:25.078Z,5.31
2018-09-24T23:24:59.850Z,5.27
2018-09-24T23:27:34.495Z,5.21
2018-09-24T23:30:09.122Z,5.29
2018-09-24T23:32:44.814Z,5.34
2018-09-24T23:35:19.495Z,5.48
2018-09-24T23:37:54.066Z,5.59
2018-09-24T23:40:29.386Z,5.70
2018-09-24T23:43:03.797Z,5.74
2018-09-24T23:45:38.249Z,5.73
2018-09-24T23:48:12.826Z,5.73
2018-09-24T23:50:47.851Z,5.67
2018-09-24T23:53:22.447Z,5.68
2018-09-24T23:55:57.932Z,5.56
2018-09-24T23:58:32.414Z,5.51
